Time,TemperatureF,DewpointF,PressureIn,WindDirection,WindDirectionDegrees,WindSpeedMPH,WindSpeedGustMPH,Humidity,HourlyPrecipIn,Conditions,Clouds,dailyrainin,SolarRadiationWatts/m^2,SoftwareType,DateUTC
2013-10-24 00:03:00,71.2,36.4,29.24,West,270,1.2,0.0,28,0.00,CLR,OVC,0.00,0.0,WeatherDisplay:10.37,2013-10-23 13:03:00,
2013-10-24 00:08:00,70.9,37.0,29.24,West,270,2.3,2.3,29,0.00,CLR,OVC,0.00,0.0,WeatherDisplay:10.37,2013-10-23 13:08:00,
2013-10-24 00:13:00,70.7,36.0,29.24,SSW,202,1.6,2.2,28,0.00,CLR,OVC,0.00,0.0,WeatherDisplay:10.37,2013-10-23 13:13:00,
2013-10-24 00:18:00,70.7,36.9,29.24,South,180,0.0,0.0,29,0.00,CLR,OVC,0.00,0.0,WeatherDisplay:10.37,2013-10-23 13:18:00,
2013-10-24 00:23:00,70.5,36.7,29.24,South,180,0.0,0.0,29,0.00,CLR,OVC,0.00,0.0,WeatherDisplay:10.37,2013-10-23 13:23:00,
2013-10-24 00:28:00,70.5,36.7,29.26,WSW,248,1.2,0.0,29,0.00,CLR,OVC,0.00,0.0,WeatherDisplay:10.37,2013-10-23 13:28:00,
2013-10-24 00:33:00,70.3,36.6,29.26,WNW,292,2.0,2.0,29,0.00,CLR,OVC,0.00,0.0,WeatherDisplay:10.37,2013-10-23 13:33:00,
2013-10-24 00:38:00,70.3,37.4,29.26,SW,225,0.0,0.0,30,0.00,CLR,OVC,0.00,0.0,WeatherDisplay:10.37,2013-10-23 13:38:00,
2013-10-24 00:43:00,70.2,37.3,29.26,WNW,292,2.3,2.3,30,0.00,CLR,OVC,0.00,0.0,WeatherDisplay:10.37,2013-10-23 13:43:00,
2013-10-24 00:48:00,70.3,38.3,29.26,SSW,202,2.0,2.0,31,0.00,CLR,OVC,0.00,0.0,WeatherDisplay:10.37,2013-10-23 13:48:00,
2013-10-24 00:53:00,70.2,38.9,29.26,West,270,1.2,1.4,32,0.00,CLR,OVC,0.00,0.0,WeatherDisplay:10.37,2013-10-23 13:53:00,
2013-10-24 00:58:00,70.2,38.9,29.26,SSW,202,2.3,2.3,32,0.00,CLR,OVC,0.00,0.0,WeatherDisplay:10.37,2013-10-23 13:58:00,
2013-10-24 01:03:00,70.2,38.9,29.26,SW,225,4.6,4.6,32,0.00,CLR,OVC,0.00,0.0,WeatherDisplay:10.37,2013-10-23 14:03:00,
2013-10-24 01:08:00,70.2,38.9,29.26,WNW,292,2.3,0.0,32,0.00,CLR,OVC,0.00,0.0,WeatherDisplay:10.37,2013-10-23 14:08:00,
2013-10-24 01:13:00,70.2,38.9,29.24,WNW,292,2.3,2.3,32,0.00,CLR,OVC,0.00,0.0,WeatherDisplay:10.37,2013-10-23 14:13:00,
2013-10-24 01:18:00,70.2,38.9,29.24,West,270,2.3,0.0,32,0.00,CLR,OVC,0.00,0.0,WeatherDisplay:10.37,2013-10-23 14:18:00,
2013-10-24 01:23:00,70.0,38.8,29.24,WSW,248,0.0,2.0,32,0.00,CLR,OVC,0.00,0.0,WeatherDisplay:10.37,2013-10-23 14:23:00,
2013-10-24 01:28:00,70.0,38.8,29.26,WSW,248,4.6,4.6,32,0.00,CLR,OVC,0.00,0.0,WeatherDisplay:10.37,2013-10-23 14:28:00,
2013-10-24 01:33:00,69.8,38.6,29.26,WSW,248,0.0,0.0,32,0.00,CLR,OVC,0.00,0.0,WeatherDisplay:10.37,2013-10-23 14:33:00,
2013-10-24 01:38:00,69.6,38.4,29.26,SW,225,0.0,0.0,32,0.00,CLR,OVC,0.00,0.0,WeatherDisplay:10.37,2013-10-23 14:38:00,
2013-10-24 01:43:00,69.4,38.3,29.26,South,180,0.0,0.0,32,0.00,CLR,OVC,0.00,0.0,WeatherDisplay:10.37,2013-10-23 14:43:00,
2013-10-24 01:48:00,69.3,38.9,29.26,SSE,158,0.0,0.0,33,0.00,CLR,OVC,0.00,0.0,WeatherDisplay:10.37,2013-10-23 14:48:00,
2013-10-24 01:53:00,69.1,38.8,29.26,SSE,158,2.3,2.3,33,0.00,CLR,OVC,0.00,0.0,WeatherDisplay:10.37,2013-10-23 14:53:00,
2013-10-24 01:58:00,68.9,38.6,29.26,SSW,202,1.2,0.0,33,0.00,CLR,OVC,0.00,0.0,WeatherDisplay:10.37,2013-10-23 14:58:00,
2013-10-24 02:03:00,68.7,38.4,29.26,WNW,292,0.0,0.0,33,0.00,CLR,OVC,0.00,0.0,WeatherDisplay:10.37,2013-10-23 15:03:00,
2013-10-24 02:08:00,68.5,38.3,29.26,West,270,0.0,0.0,33,0.00,CLR,OVC,0.00,0.0,WeatherDisplay:10.37,2013-10-23 15:08:00,
2013-10-24 02:13:00,68.4,38.1,29.26,West,270,0.0,0.0,33,0.00,CLR,OVC,0.00,0.0,WeatherDisplay:10.37,2013-10-23 15:13:00,
2013-10-24 02:18:00,68.2,38.0,29.26,West,270,0.0,0.0,33,0.00,CLR,OVC,0.00,0.0,WeatherDisplay:10.37,2013-10-23 15:18:00,
2013-10-24 02:23:00,67.8,38.4,29.26,North,0,0.0,0.0,34,0.00,CLR,OVC,0.00,0.0,WeatherDisplay:10.37,2013-10-23 15:23:00,
2013-10-24 02:28:00,67.6,38.3,29.26,NE,45,0.0,0.0,34,0.00,CLR,OVC,0.00,0.0,WeatherDisplay:10.37,2013-10-23 15:28:00,
2013-10-24 02:33:00,67.3,38.7,29.26,SSE,158,0.0,0.0,35,0.00,CLR,OVC,0.00,0.0,WeatherDisplay:10.37,2013-10-23 15:33:00,
2013-10-24 02:38:00,67.1,38.5,29.26,South,180,0.0,0.0,35,0.00,CLR,OVC,0.00,0.0,WeatherDisplay:10.37,2013-10-23 15:38:00,
2013-10-24 02:43:00,66.9,38.4,29.26,SSW,202,0.0,0.0,35,0.00,CLR,OVC,0.00,0.0,WeatherDisplay:10.37,2013-10-23 15:43:00,
2013-10-24 02:48:00,66.9,38.4,29.26,ENE,68,0.0,0.0,35,0.00,CLR,OVC,0.00,0.0,WeatherDisplay:10.37,2013-10-23 15:48:00,
2013-10-24 02:53:00,66.9,39.1,29.26,ENE,68,0.0,0.0,36,0.00,CLR,OVC,0.00,0.0,WeatherDisplay:10.37,2013-10-23 15:53:00,
2013-10-24 02:58:00,66.6,38.8,29.26,ENE,68,0.0,0.0,36,0.00,CLR,OVC,0.00,0.0,WeatherDisplay:10.37,2013-10-23 15:58:00,
2013-10-24 03:03:00,66.6,38.8,29.26,SE,135,0.0,0.0,36,0.00,CLR,OVC,0.00,0.0,WeatherDisplay:10.37,2013-10-23 16:03:00,
2013-10-24 03:08:00,66.4,38.6,29.26,SE,135,0.0,0.0,36,0.00,CLR,OVC,0.00,0.0,WeatherDisplay:10.37,2013-10-23 16:08:00,
2013-10-24 03:13:00,66.2,39.1,29.29,SE,135,0.0,0.0,37,0.00,CLR,OVC,0.00,0.0,WeatherDisplay:10.37,2013-10-23 16:13:00,
2013-10-24 03:18:00,66.0,39.0,29.29,West,270,0.0,0.0,37,0.00,CLR,OVC,0.00,0.0,WeatherDisplay:10.37,2013-10-23 16:18:00,
2013-10-24 03:23:00,65.8,39.5,29.29,West,270,0.0,0.0,38,0.00,CLR,OVC,0.00,0.0,WeatherDisplay:10.37,2013-10-23 16:23:00,
2013-10-24 03:28:00,65.8,39.5,29.26,West,270,0.0,0.0,38,0.00,CLR,OVC,0.00,0.0,WeatherDisplay:10.37,2013-10-23 16:28:00,
2013-10-24 03:33:00,65.7,39.3,29.26,West,270,0.0,0.0,38,0.00,CLR,OVC,0.00,0.0,WeatherDisplay:10.37,2013-10-23 16:33:00,
2013-10-24 03:38:00,65.7,39.3,29.26,WSW,248,0.0,0.0,38,0.00,CLR,OVC,0.00,0.0,WeatherDisplay:10.37,2013-10-23 16:38:00,
2013-10-24 03:43:00,65.5,39.2,29.26,NW,315,0.0,0.0,38,0.00,CLR,OVC,0.00,0.0,WeatherDisplay:10.37,2013-10-23 16:43:00,
2013-10-24 03:48:00,65.5,39.9,29.26,SSE,158,0.0,0.0,39,0.00,CLR,OVC,0.00,0.0,WeatherDisplay:10.37,2013-10-23 16:48:00,
2013-10-24 03:53:00,65.3,39.7,29.26,SSE,158,0.0,0.0,39,0.00,CLR,OVC,0.00,0.0,WeatherDisplay:10.37,2013-10-23 16:53:00,
2013-10-24 03:58:00,65.1,39.5,29.26,WNW,292,0.0,0.0,39,0.00,CLR,OVC,0.00,0.0,WeatherDisplay:10.37,2013-10-23 16:58:00,
2013-10-24 04:03:00,64.9,40.0,29.26,NE,45,0.0,0.0,40,0.00,CLR,OVC,0.00,0.0,WeatherDisplay:10.37,2013-10-23 17:03:00,
2013-10-24 04:08:00,64.8,39.9,29.26,NNE,22,0.0,0.0,40,0.00,CLR,OVC,0.00,0.0,WeatherDisplay:10.37,2013-10-23 17:08:00,
2013-10-24 04:13:00,64.8,39.9,29.26,East,90,0.0,0.0,40,0.00,CLR,OVC,0.00,0.0,WeatherDisplay:10.37,2013-10-23 17:13:00,
2013-10-24 04:18:00,64.6,40.3,29.26,NE,45,0.0,0.0,41,0.00,CLR,OVC,0.00,0.0,WeatherDisplay:10.37,2013-10-23 17:18:00,
2013-10-24 04:23:00,64.4,40.2,29.26,WSW,248,0.0,0.0,41,0.00,CLR,OVC,0.00,0.0,WeatherDisplay:10.37,2013-10-23 17:23:00,
2013-10-24 04:28:00,64.2,40.0,29.24,WSW,248,0.0,0.0,41,0.00,CLR,OVC,0.00,0.0,WeatherDisplay:10.37,2013-10-23 17:28:00,
2013-10-24 04:33:00,64.2,40.0,29.24,SSE,158,0.0,0.0,41,0.00,CLR,OVC,0.00,0.0,WeatherDisplay:10.37,2013-10-23 17:33:00,
2013-10-24 04:38:00,64.2,40.0,29.24,WNW,292,0.0,0.0,41,0.00,CLR,OVC,0.00,0.0,WeatherDisplay:10.37,2013-10-23 17:38:00,
2013-10-24 04:43:00,64.0,40.5,29.26,WNW,292,0.0,0.0,42,0.00,CLR,OVC,0.00,0.0,WeatherDisplay:10.37,2013-10-23 17:43:00,
2013-10-24 04:48:00,64.0,41.1,29.26,WNW,292,0.0,0.0,43,0.00,CLR,OVC,0.00,0.0,WeatherDisplay:10.37,2013-10-23 17:48:00,
2013-10-24 04:53:00,63.9,40.3,29.26,South,180,0.0,0.0,42,0.00,CLR,OVC,0.00,0.0,WeatherDisplay:10.37,2013-10-23 17:53:00,
2013-10-24 04:58:00,63.7,40.1,29.26,WSW,248,0.0,0.0,42,0.00,CLR,OVC,0.00,0.0,WeatherDisplay:10.37,2013-10-23 17:58:00,
2013-10-24 05:03:00,63.7,40.8,29.26,West,270,0.0,0.0,43,0.00,CLR,OVC,0.00,0.0,WeatherDisplay:10.37,2013-10-23 18:03:00,
2013-10-24 05:08:00,63.5,40.0,29.26,SW,225,0.0,0.0,42,0.00,CLR,OVC,0.00,0.0,WeatherDisplay:10.37,2013-10-23 18:08:00,
2013-10-24 05:13:00,63.5,40.6,29.26,WNW,292,0.0,0.0,43,0.00,CLR,OVC,0.00,0.0,WeatherDisplay:10.37,2013-10-23 18:13:00,
2013-10-24 05:18:00,63.3,40.4,29.26,ENE,68,0.0,0.0,43,0.00,CLR,OVC,0.00,0.0,WeatherDisplay:10.37,2013-10-23 18:18:00,
2013-10-24 05:23:00,63.1,40.9,29.26,SSE,158,1.2,1.2,44,0.00,CLR,OVC,0.00,0.0,WeatherDisplay:10.37,2013-10-23 18:23:00,
2013-10-24 05:28:00,63.0,40.1,29.26,WSW,248,0.0,0.0,43,0.00,CLR,OVC,0.00,0.0,WeatherDisplay:10.37,2013-10-23 18:28:00,
2013-10-24 05:33:00,63.0,40.7,29.26,SE,135,0.0,0.0,44,0.00,CLR,OVC,0.00,0.0,WeatherDisplay:10.37,2013-10-23 18:33:00,
2013-10-24 05:38:00,62.8,40.5,29.26,SW,225,0.0,0.0,44,0.00,CLR,OVC,0.00,0.0,WeatherDisplay:10.37,2013-10-23 18:38:00,
2013-10-24 05:43:00,62.6,40.4,29.29,NNE,22,0.0,0.0,44,0.00,CLR,OVC,0.00,0.0,WeatherDisplay:10.37,2013-10-23 18:43:00,
2013-10-24 05:48:00,62.6,40.4,29.29,NNE,22,0.0,0.0,44,0.00,CLR,OVC,0.00,0.0,WeatherDisplay:10.37,2013-10-23 18:48:00,
2013-10-24 05:53:00,62.2,40.6,29.29,West,270,0.0,0.0,45,0.00,CLR,OVC,0.00,0.0,WeatherDisplay:10.37,2013-10-23 18:53:00,
2013-10-24 05:58:00,62.1,40.5,29.29,SE,135,0.0,0.0,45,0.00,CLR,OVC,0.00,0.0,WeatherDisplay:10.37,2013-10-23 18:58:00,
2013-10-24 06:03:00,62.1,40.5,29.29,South,180,0.0,0.0,45,0.00,CLR,OVC,0.00,0.0,WeatherDisplay:10.37,2013-10-23 19:03:00,
2013-10-24 06:08:00,61.9,40.3,29.29,WSW,248,0.0,0.0,45,0.00,CLR,OVC,0.00,0.0,WeatherDisplay:10.37,2013-10-23 19:08:00,
2013-10-24 06:13:00,61.9,40.3,29.32,WSW,248,0.0,0.0,45,0.00,CLR,OVC,0.00,0.0,WeatherDisplay:10.37,2013-10-23 19:13:00,
2013-10-24 06:18:00,61.9,40.3,29.32,WSW,248,0.0,0.0,45,0.00,CLR,OVC,0.00,0.0,WeatherDisplay:10.37,2013-10-23 19:18:00,
2013-10-24 06:23:00,61.7,40.1,29.32,WSW,248,0.0,0.0,45,0.00,CLR,OVC,0.00,0.0,WeatherDisplay:10.37,2013-10-23 19:23:00,
2013-10-24 06:28:00,61.7,40.7,29.32,South,180,0.0,0.0,46,0.00,CLR,OVC,0.00,0.0,WeatherDisplay:10.37,2013-10-23 19:28:00,
2013-10-24 06:33:00,61.5,40.5,29.32,SSE,158,0.0,0.0,46,0.00,CLR,OVC,0.00,0.0,WeatherDisplay:10.37,2013-10-23 19:33:00,
2013-10-24 06:38:00,61.5,40.5,29.32,West,270,0.0,0.0,46,0.00,CLR,OVC,0.00,0.0,WeatherDisplay:10.37,2013-10-23 19:38:00,
2013-10-24 06:43:00,61.3,40.9,29.32,SSE,158,0.0,0.0,47,0.00,CLR,OVC,0.00,0.0,WeatherDisplay:10.37,2013-10-23 19:43:00,
2013-10-24 06:48:00,61.5,41.1,29.32,SSE,158,0.0,0.0,47,0.00,CLR,OVC,0.00,0.0,WeatherDisplay:10.37,2013-10-23 19:48:00,
2013-10-24 06:53:00,61.5,41.1,29.32,SSE,158,0.0,0.0,47,0.00,CLR,OVC,0.00,0.0,WeatherDisplay:10.37,2013-10-23 19:53:00,
2013-10-24 06:58:00,61.5,41.1,29.32,NNE,22,0.0,0.0,47,0.00,CLR,OVC,0.00,0.0,WeatherDisplay:10.37,2013-10-23 19:58:00,
2013-10-24 07:03:00,61.7,41.3,29.32,SE,135,0.0,0.0,47,0.00,CLR,OVC,0.00,0.0,WeatherDisplay:10.37,2013-10-23 20:03:00,
2013-10-24 07:08:00,62.1,41.6,29.32,NNE,22,0.0,1.2,47,0.00,CLR,OVC,0.00,0.0,WeatherDisplay:10.37,2013-10-23 20:08:00,
2013-10-24 07:13:00,62.4,41.4,29.32,NNE,22,0.0,1.2,46,0.00,CLR,OVC,0.00,0.0,WeatherDisplay:10.37,2013-10-23 20:13:00,
2013-10-24 07:18:00,62.8,41.7,29.32,NNE,22,0.9,1.6,46,0.00,CLR,OVC,0.00,0.0,WeatherDisplay:10.37,2013-10-23 20:18:00,
2013-10-24 07:23:00,63.0,41.8,29.32,NNE,22,1.2,1.6,46,0.00,CLR,OVC,0.00,0.0,WeatherDisplay:10.37,2013-10-23 20:23:00,
2013-10-24 07:28:00,63.1,42.0,29.32,NNE,22,1.2,1.6,46,0.00,CLR,OVC,0.00,0.0,WeatherDisplay:10.37,2013-10-23 20:28:00,
2013-10-24 07:34:00,63.3,41.6,29.32,NNE,22,1.2,1.6,45,0.00,CLR,OVC,0.00,0.0,WeatherDisplay:10.37,2013-10-23 20:34:00,
2013-10-24 07:39:00,63.9,42.1,29.32,NNE,22,1.2,1.6,45,0.00,CLR,OVC,0.00,0.0,WeatherDisplay:10.37,2013-10-23 20:39:00,
2013-10-24 07:44:00,64.0,42.3,29.32,NW,315,1.6,1.6,45,0.00,CLR,OVC,0.00,0.0,WeatherDisplay:10.37,2013-10-23 20:44:00,
2013-10-24 07:48:00,64.4,42.0,29.32,NW,315,1.6,1.6,44,0.00,CLR,OVC,0.00,0.0,WeatherDisplay:10.37,2013-10-23 20:48:00,
2013-10-24 07:53:00,64.8,41.7,29.32,NW,315,1.6,1.6,43,0.00,CLR,OVC,0.00,0.0,WeatherDisplay:10.37,2013-10-23 20:53:00,
2013-10-24 07:58:00,65.1,42.1,29.35,West,270,3.5,3.6,43,0.00,CLR,OVC,0.00,0.0,WeatherDisplay:10.37,2013-10-23 20:58:00,
2013-10-24 08:03:00,65.5,42.4,29.35,West,270,3.5,3.6,43,0.00,CLR,OVC,0.00,0.0,WeatherDisplay:10.37,2013-10-23 21:03:00,
2013-10-24 08:08:00,65.8,42.1,29.35,West,270,3.5,3.6,42,0.00,CLR,OVC,0.00,0.0,WeatherDisplay:10.37,2013-10-23 21:08:00,
2013-10-24 08:13:00,66.4,42.0,29.32,NNW,338,6.9,6.9,41,0.00,CLR,OVC,0.00,0.0,WeatherDisplay:10.37,2013-10-23 21:13:00,
2013-10-24 08:18:00,66.9,42.4,29.32,West,270,5.8,5.8,41,0.00,CLR,OVC,0.00,100.0,WeatherDisplay:10.37,2013-10-23 21:18:00,
2013-10-24 08:23:00,67.5,42.3,29.32,West,270,1.2,1.2,40,0.00,CLR,OVC,0.00,100.0,WeatherDisplay:10.37,2013-10-23 21:23:00,
2013-10-24 08:29:00,68.5,43.2,29.32,WNW,292,6.9,6.9,40,0.00,CLR,OVC,0.00,100.0,WeatherDisplay:10.37,2013-10-23 21:29:00,
2013-10-24 08:34:00,69.3,43.2,29.32,South,180,3.6,3.6,39,0.00,CLR,OVC,0.00,100.0,WeatherDisplay:10.37,2013-10-23 21:34:00,
2013-10-24 08:39:00,70.2,43.4,29.32,NNE,22,5.8,5.8,38,0.00,CLR,OVC,0.00,200.0,WeatherDisplay:10.37,2013-10-23 21:39:00,
2013-10-24 08:44:00,71.2,43.6,29.35,SW,225,3.8,3.8,37,0.00,CLR,OVC,0.00,200.0,WeatherDisplay:10.37,2013-10-23 21:44:00,
2013-10-24 08:48:00,71.8,42.6,29.35,WNW,292,11.5,11.5,35,0.00,CLR,OVC,0.00,200.0,WeatherDisplay:10.37,2013-10-23 21:48:00,
2013-10-24 08:53:00,72.5,43.3,29.35,WNW,292,5.8,5.8,35,0.00,CLR,OVC,0.00,200.0,WeatherDisplay:10.37,2013-10-23 21:53:00,
2013-10-24 08:58:00,73.2,43.2,29.35,WSW,248,6.0,6.0,34,0.00,CLR,OVC,0.00,200.0,WeatherDisplay:10.37,2013-10-23 21:58:00,
2013-10-24 09:03:00,73.4,42.5,29.35,West,270,10.4,10.4,33,0.00,CLR,OVC,0.00,300.0,WeatherDisplay:10.37,2013-10-23 22:03:00,
2013-10-24 09:08:00,74.3,43.3,29.35,NW,315,8.1,8.1,33,0.00,CLR,OVC,0.00,300.0,WeatherDisplay:10.37,2013-10-23 22:08:00,
2013-10-24 09:13:00,75.2,43.3,29.32,NNW,338,7.6,7.6,32,0.00,CLR,OVC,0.00,300.0,WeatherDisplay:10.37,2013-10-23 22:13:00,
2013-10-24 09:18:00,75.4,43.5,29.32,WNW,292,5.8,5.8,32,0.00,CLR,OVC,0.00,300.0,WeatherDisplay:10.37,2013-10-23 22:18:00,
2013-10-24 09:23:00,76.3,44.2,29.32,NW,315,6.9,6.9,32,0.00,CLR,OVC,0.00,300.0,WeatherDisplay:10.37,2013-10-23 22:23:00,
2013-10-24 09:28:00,76.8,43.9,29.32,WNW,292,8.1,8.1,31,0.00,CLR,OVC,0.00,300.0,WeatherDisplay:10.37,2013-10-23 22:28:00,
2013-10-24 09:33:00,77.4,44.4,29.32,West,270,5.8,5.8,31,0.00,CLR,OVC,0.00,400.0,WeatherDisplay:10.37,2013-10-23 22:33:00,
2013-10-24 09:39:00,77.5,43.6,29.32,West,270,5.8,5.8,30,0.00,CLR,OVC,0.00,400.0,WeatherDisplay:10.37,2013-10-23 22:39:00,
2013-10-24 09:43:00,78.1,44.1,29.29,WNW,292,6.9,6.9,30,0.00,CLR,OVC,0.00,400.0,WeatherDisplay:10.37,2013-10-23 22:43:00,
2013-10-24 09:49:00,79.3,45.2,29.29,WNW,292,5.8,5.8,30,0.00,CLR,OVC,0.00,400.0,WeatherDisplay:10.37,2013-10-23 22:49:00,
2013-10-24 09:54:00,79.2,44.2,29.29,WNW,292,3.5,3.5,29,0.00,CLR,OVC,0.00,400.0,WeatherDisplay:10.37,2013-10-23 22:54:00,
2013-10-24 09:59:00,79.2,43.2,29.32,NNW,338,8.1,8.1,28,0.00,CLR,OVC,0.00,500.0,WeatherDisplay:10.37,2013-10-23 22:59:00,
2013-10-24 10:03:00,80.2,44.2,29.32,NW,315,2.6,2.6,28,0.00,CLR,OVC,0.00,500.0,WeatherDisplay:10.37,2013-10-23 23:03:00,
2013-10-24 10:09:00,80.6,43.5,29.32,West,270,10.4,10.4,27,0.00,CLR,OVC,0.00,500.0,WeatherDisplay:10.37,2013-10-23 23:09:00,
2013-10-24 10:14:00,80.4,42.4,29.32,ENE,68,5.8,5.8,26,0.00,CLR,OVC,0.00,500.0,WeatherDisplay:10.37,2013-10-23 23:14:00,
2013-10-24 10:19:00,81.0,42.8,29.32,West,270,3.5,3.5,26,0.00,CLR,OVC,0.00,600.0,WeatherDisplay:10.37,2013-10-23 23:19:00,
2013-10-24 10:24:00,81.1,42.0,29.32,WNW,292,9.2,9.2,25,0.00,CLR,OVC,0.00,600.0,WeatherDisplay:10.37,2013-10-23 23:24:00,
2013-10-24 10:29:00,81.5,42.3,29.32,WNW,292,6.9,6.9,25,0.00,CLR,OVC,0.00,600.0,WeatherDisplay:10.37,2013-10-23 23:29:00,
2013-10-24 10:34:00,82.4,42.0,29.32,WNW,292,8.1,8.1,24,0.00,CLR,OVC,0.00,600.0,WeatherDisplay:10.37,2013-10-23 23:34:00,
2013-10-24 10:39:00,82.6,42.1,29.32,WNW,292,4.7,4.7,24,0.00,CLR,OVC,0.00,700.0,WeatherDisplay:10.37,2013-10-23 23:39:00,
2013-10-24 10:44:00,83.8,43.2,29.32,West,270,10.4,10.4,24,0.00,CLR,OVC,0.00,700.0,WeatherDisplay:10.37,2013-10-23 23:44:00,
2013-10-24 10:49:00,84.4,42.5,29.32,NW,315,4.6,4.6,23,0.00,CLR,OVC,0.00,700.0,WeatherDisplay:10.37,2013-10-23 23:49:00,
2013-10-24 10:54:00,84.0,41.1,29.32,WNW,292,8.1,8.1,22,0.00,CLR,OVC,0.00,700.0,WeatherDisplay:10.37,2013-10-23 23:54:00,
2013-10-24 10:59:00,83.8,40.9,29.29,West,270,5.8,5.8,22,0.00,CLR,OVC,0.00,800.0,WeatherDisplay:10.37,2013-10-23 23:59:00,
2013-10-24 11:04:00,84.4,40.2,29.29,NNW,338,6.9,6.9,21,0.00,CLR,OVC,0.00,800.0,WeatherDisplay:10.37,2013-10-24 00:04:00,
2013-10-24 11:09:00,84.6,40.3,29.29,NNW,338,5.6,5.6,21,0.00,CLR,OVC,0.00,800.0,WeatherDisplay:10.37,2013-10-24 00:09:00,
2013-10-24 11:14:00,84.4,40.2,29.29,NNE,22,6.9,6.9,21,0.00,CLR,OVC,0.00,800.0,WeatherDisplay:10.37,2013-10-24 00:14:00,
2013-10-24 11:19:00,84.7,40.5,29.29,NW,315,6.4,6.4,21,0.00,CLR,OVC,0.00,900.0,WeatherDisplay:10.37,2013-10-24 00:19:00,
2013-10-24 11:24:00,85.3,40.9,29.29,South,180,6.0,6.0,21,0.00,CLR,OVC,0.00,900.0,WeatherDisplay:10.37,2013-10-24 00:24:00,
2013-10-24 11:29:00,86.0,41.5,29.26,NNW,338,8.1,8.1,21,0.00,CLR,OVC,0.00,800.0,WeatherDisplay:10.37,2013-10-24 00:29:00,
2013-10-24 11:34:00,85.5,39.8,29.26,NNW,338,5.8,5.8,20,0.00,CLR,OVC,0.00,800.0,WeatherDisplay:10.37,2013-10-24 00:34:00,
2013-10-24 11:39:00,86.2,40.4,29.26,NNW,338,8.5,8.5,20,0.00,CLR,OVC,0.00,800.0,WeatherDisplay:10.37,2013-10-24 00:39:00,
2013-10-24 11:44:00,85.3,39.7,29.29,SW,225,11.5,11.5,20,0.00,CLR,OVC,0.00,800.0,WeatherDisplay:10.37,2013-10-24 00:44:00,
2013-10-24 11:49:00,84.9,38.0,29.29,SSE,158,19.6,19.6,19,0.00,CLR,OVC,0.00,800.0,WeatherDisplay:10.37,2013-10-24 00:49:00,
2013-10-24 11:54:00,84.9,39.4,29.29,West,270,11.4,11.4,20,0.00,CLR,OVC,0.00,800.0,WeatherDisplay:10.37,2013-10-24 00:54:00,
2013-10-24 11:59:00,84.6,37.8,29.26,WNW,292,11.5,11.5,19,0.00,CLR,OVC,0.00,900.0,WeatherDisplay:10.37,2013-10-24 00:59:00,
2013-10-24 12:04:00,84.9,38.0,29.26,NNW,338,8.1,8.1,19,0.00,CLR,OVC,0.00,900.0,WeatherDisplay:10.37,2013-10-24 01:04:00,
2013-10-24 12:09:00,85.6,38.6,29.26,North,0,4.6,4.6,19,0.00,CLR,OVC,0.00,900.0,WeatherDisplay:10.37,2013-10-24 01:09:00,
2013-10-24 12:14:00,87.1,39.8,29.24,WNW,292,6.4,6.4,19,0.00,CLR,OVC,0.00,1000.0,WeatherDisplay:10.37,2013-10-24 01:14:00,
2013-10-24 12:19:00,87.3,40.0,29.24,West,270,4.6,4.6,19,0.00,CLR,OVC,0.00,1000.0,WeatherDisplay:10.37,2013-10-24 01:19:00,
2013-10-24 12:24:00,86.9,38.3,29.24,NNW,338,9.2,9.2,18,0.00,CLR,OVC,0.00,1000.0,WeatherDisplay:10.37,2013-10-24 01:24:00,
2013-10-24 12:29:00,86.5,38.0,29.26,NNW,338,5.8,6.0,18,0.00,CLR,OVC,0.00,1000.0,WeatherDisplay:10.37,2013-10-24 01:29:00,
2013-10-24 12:34:00,86.4,37.8,29.26,NNE,22,5.8,5.8,18,0.00,CLR,OVC,0.00,1000.0,WeatherDisplay:10.37,2013-10-24 01:34:00,
2013-10-24 12:39:00,87.1,38.4,29.26,West,270,9.0,9.0,18,0.00,CLR,OVC,0.00,1000.0,WeatherDisplay:10.37,2013-10-24 01:39:00,
2013-10-24 12:44:00,87.1,38.4,29.26,ENE,68,5.8,5.8,18,0.00,CLR,OVC,0.00,1000.0,WeatherDisplay:10.37,2013-10-24 01:44:00,
2013-10-24 12:49:00,87.3,38.6,29.26,WSW,248,10.9,10.9,18,0.00,CLR,OVC,0.00,1000.0,WeatherDisplay:10.37,2013-10-24 01:49:00,
2013-10-24 12:54:00,86.9,38.3,29.26,West,270,15.0,15.0,18,0.00,CLR,OVC,0.00,1000.0,WeatherDisplay:10.37,2013-10-24 01:54:00,
2013-10-24 12:59:00,87.1,38.4,29.24,NNE,22,4.6,4.6,18,0.00,CLR,OVC,0.00,1000.0,WeatherDisplay:10.37,2013-10-24 01:59:00,
2013-10-24 13:04:00,86.9,35.3,29.24,West,270,8.1,8.1,16,0.00,CLR,OVC,0.00,1000.0,WeatherDisplay:10.37,2013-10-24 02:04:00,
2013-10-24 13:09:00,86.9,38.3,29.24,WSW,248,9.2,9.2,18,0.00,CLR,OVC,0.00,1000.0,WeatherDisplay:10.37,2013-10-24 02:09:00,
2013-10-24 13:14:00,86.9,38.3,29.26,NE,45,5.9,5.9,18,0.00,CLR,OVC,0.00,1000.0,WeatherDisplay:10.37,2013-10-24 02:14:00,
2013-10-24 13:19:00,87.1,38.4,29.26,WNW,292,9.2,9.2,18,0.00,CLR,OVC,0.00,900.0,WeatherDisplay:10.37,2013-10-24 02:19:00,
2013-10-24 13:24:00,86.9,35.3,29.26,NW,315,6.2,6.2,16,0.00,CLR,OVC,0.00,900.0,WeatherDisplay:10.37,2013-10-24 02:24:00,
2013-10-24 13:29:00,86.7,35.1,29.26,NNE,22,9.2,9.2,16,0.00,CLR,OVC,0.00,900.0,WeatherDisplay:10.37,2013-10-24 02:29:00,
2013-10-24 13:34:00,86.2,34.7,29.26,NNW,338,8.1,8.1,16,0.00,CLR,OVC,0.00,900.0,WeatherDisplay:10.37,2013-10-24 02:34:00,
2013-10-24 13:39:00,86.4,34.9,29.26,WNW,292,9.2,9.2,16,0.00,CLR,OVC,0.00,900.0,WeatherDisplay:10.37,2013-10-24 02:39:00,
2013-10-24 13:44:00,86.7,35.1,29.26,NW,315,5.8,5.8,16,0.00,CLR,OVC,0.00,800.0,WeatherDisplay:10.37,2013-10-24 02:44:00,
2013-10-24 13:49:00,86.7,35.1,29.26,West,270,14.0,14.0,16,0.00,CLR,OVC,0.00,800.0,WeatherDisplay:10.37,2013-10-24 02:49:00,
2013-10-24 13:54:00,86.0,34.6,29.26,NNW,338,8.1,8.1,16,0.00,CLR,OVC,0.00,800.0,WeatherDisplay:10.37,2013-10-24 02:54:00,
2013-10-24 13:59:00,85.6,34.3,29.26,SE,135,5.8,5.8,16,0.00,CLR,OVC,0.00,800.0,WeatherDisplay:10.37,2013-10-24 02:59:00,
2013-10-24 14:04:00,86.7,35.1,29.26,WNW,292,5.8,5.8,16,0.00,CLR,OVC,0.00,700.0,WeatherDisplay:10.37,2013-10-24 03:04:00,
2013-10-24 14:09:00,87.1,35.4,29.26,NNW,338,4.6,4.7,16,0.00,CLR,OVC,0.00,700.0,WeatherDisplay:10.37,2013-10-24 03:09:00,
2013-10-24 14:14:00,87.1,35.4,29.26,NNW,338,5.6,5.6,16,0.00,CLR,OVC,0.00,700.0,WeatherDisplay:10.37,2013-10-24 03:14:00,
2013-10-24 14:19:00,86.9,35.3,29.26,NW,315,5.8,5.8,16,0.00,CLR,OVC,0.00,700.0,WeatherDisplay:10.37,2013-10-24 03:19:00,
2013-10-24 14:24:00,86.4,34.9,29.26,ESE,112,6.9,6.9,16,0.00,CLR,OVC,0.00,700.0,WeatherDisplay:10.37,2013-10-24 03:24:00,
2013-10-24 14:29:00,86.4,34.9,29.24,West,270,2.9,2.9,16,0.00,CLR,OVC,0.00,700.0,WeatherDisplay:10.37,2013-10-24 03:29:00,
2013-10-24 14:34:00,86.9,35.3,29.24,WNW,292,6.9,6.9,16,0.00,CLR,OVC,0.00,700.0,WeatherDisplay:10.37,2013-10-24 03:34:00,
2013-10-24 14:39:00,85.6,34.3,29.24,WNW,292,10.4,10.4,16,0.00,CLR,OVC,0.00,700.0,WeatherDisplay:10.37,2013-10-24 03:39:00,
2013-10-24 14:44:00,85.8,34.4,29.24,NNW,338,8.1,8.1,16,0.00,CLR,OVC,0.00,600.0,WeatherDisplay:10.37,2013-10-24 03:44:00,
2013-10-24 14:49:00,85.6,29.1,29.24,WNW,292,12.7,12.7,13,0.00,CLR,OVC,0.00,600.0,WeatherDisplay:10.37,2013-10-24 03:49:00,
2013-10-24 14:54:00,85.5,29.0,29.24,NNE,22,10.4,10.4,13,0.00,CLR,OVC,0.00,0.0,WeatherDisplay:10.37,2013-10-24 03:54:00,
2013-10-24 14:59:00,85.5,29.0,29.24,WNW,296,6.0,13.0,13,0.00,CLR,OVC,0.00,0.0,WeatherDisplay:10.37,2013-10-24 03:59:00,
2013-10-24 15:01:00,85.6,29.1,29.24,NNW,338,8.1,8.1,13,0.00,CLR,OVC,0.00,0.0,WeatherDisplay:10.37,2013-10-24 04:01:00,
2013-10-24 15:02:00,85.8,29.3,29.24,West,270,8.1,8.1,13,0.00,CLR,OVC,0.00,0.0,WeatherDisplay:10.37,2013-10-24 04:02:00,
2013-10-24 15:07:00,85.6,29.1,29.24,NW,315,8.1,8.1,13,0.00,CLR,OVC,0.00,0.0,WeatherDisplay:10.37,2013-10-24 04:07:00,
2013-10-24 15:12:00,85.5,29.0,29.24,NNE,22,5.8,5.8,13,0.00,CLR,OVC,0.00,0.0,WeatherDisplay:10.37,2013-10-24 04:12:00,
2013-10-24 15:17:00,85.1,28.7,29.24,NW,315,13.8,13.8,13,0.00,CLR,OVC,0.00,0.0,WeatherDisplay:10.37,2013-10-24 04:17:00,
2013-10-24 15:22:00,84.7,28.4,29.24,WNW,292,8.1,8.1,13,0.00,CLR,OVC,0.00,0.0,WeatherDisplay:10.37,2013-10-24 04:22:00,
2013-10-24 15:27:00,84.7,28.4,29.24,WSW,248,9.2,9.2,13,0.00,CLR,OVC,0.00,0.0,WeatherDisplay:10.37,2013-10-24 04:27:00,
2013-10-24 15:32:00,84.4,28.1,29.26,WNW,292,3.5,3.5,13,0.00,CLR,OVC,0.00,0.0,WeatherDisplay:10.37,2013-10-24 04:32:00,
2013-10-24 15:37:00,84.4,28.1,29.26,NW,315,5.8,5.8,13,0.00,CLR,OVC,0.00,0.0,WeatherDisplay:10.37,2013-10-24 04:37:00,
2013-10-24 15:42:00,83.7,29.4,29.26,North,0,10.7,10.7,14,0.00,CLR,OVC,0.00,0.0,WeatherDisplay:10.37,2013-10-24 04:42:00,
2013-10-24 15:47:00,83.5,29.2,29.26,NW,315,12.1,12.1,14,0.00,CLR,OVC,0.00,0.0,WeatherDisplay:10.37,2013-10-24 04:47:00,
2013-10-24 15:52:00,83.5,29.2,29.26,NNW,338,8.1,8.1,14,0.00,CLR,OVC,0.00,0.0,WeatherDisplay:10.37,2013-10-24 04:52:00,
2013-10-24 15:57:00,83.3,29.1,29.26,North,0,3.5,3.5,14,0.00,CLR,OVC,0.00,0.0,WeatherDisplay:10.37,2013-10-24 04:57:00,
2013-10-24 16:02:00,82.8,28.7,29.26,NNW,338,12.7,12.7,14,0.00,CLR,OVC,0.00,0.0,WeatherDisplay:10.37,2013-10-24 05:02:00,
2013-10-24 16:07:00,82.6,28.5,29.26,West,270,4.6,4.6,14,0.00,CLR,OVC,0.00,0.0,WeatherDisplay:10.37,2013-10-24 05:07:00,
2013-10-24 16:12:00,81.7,27.8,29.26,WNW,292,4.6,4.6,14,0.00,CLR,OVC,0.00,0.0,WeatherDisplay:10.37,2013-10-24 05:12:00,
2013-10-24 16:17:00,82.0,28.1,29.26,SSE,158,5.9,5.9,14,0.00,CLR,OVC,0.00,0.0,WeatherDisplay:10.37,2013-10-24 05:17:00,
2013-10-24 16:22:00,81.5,27.7,29.26,SW,225,5.8,5.8,14,0.00,CLR,OVC,0.00,0.0,WeatherDisplay:10.37,2013-10-24 05:22:00,
2013-10-24 16:27:00,81.0,27.3,29.26,NNE,22,3.5,3.5,14,0.00,CLR,OVC,0.00,0.0,WeatherDisplay:10.37,2013-10-24 05:27:00,
2013-10-24 16:32:00,80.6,27.0,29.26,SSW,202,6.9,6.9,14,0.00,CLR,OVC,0.00,0.0,WeatherDisplay:10.37,2013-10-24 05:32:00,
2013-10-24 16:37:00,80.1,22.8,29.26,North,0,9.2,9.2,12,0.00,CLR,OVC,0.00,0.0,WeatherDisplay:10.37,2013-10-24 05:37:00,
2013-10-24 16:42:00,80.1,28.2,29.26,WSW,248,6.4,6.4,15,0.00,CLR,OVC,0.00,0.0,WeatherDisplay:10.37,2013-10-24 05:42:00,
2013-10-24 16:47:00,79.9,22.7,29.29,NW,315,9.2,9.2,12,0.00,CLR,OVC,0.00,0.0,WeatherDisplay:10.37,2013-10-24 05:47:00,
2013-10-24 16:52:00,79.5,22.4,29.29,WNW,292,2.9,2.9,12,0.00,CLR,OVC,0.00,0.0,WeatherDisplay:10.37,2013-10-24 05:52:00,
2013-10-24 16:57:00,79.3,22.3,29.29,South,180,4.6,4.6,12,0.00,CLR,OVC,0.00,0.0,WeatherDisplay:10.37,2013-10-24 05:57:00,
2013-10-24 17:02:00,79.2,22.1,29.32,NW,315,2.3,2.6,12,0.00,CLR,OVC,0.00,0.0,WeatherDisplay:10.37,2013-10-24 06:02:00,
2013-10-24 17:07:00,78.4,23.5,29.32,WNW,292,8.1,8.1,13,0.00,CLR,OVC,0.00,0.0,WeatherDisplay:10.37,2013-10-24 06:07:00,
2013-10-24 17:12:00,78.1,26.6,29.32,NW,315,4.6,4.6,15,0.00,CLR,OVC,0.00,0.0,WeatherDisplay:10.37,2013-10-24 06:12:00,
2013-10-24 17:17:00,77.9,26.5,29.29,NNE,22,4.6,4.6,15,0.00,CLR,OVC,0.00,0.0,WeatherDisplay:10.37,2013-10-24 06:17:00,
2013-10-24 17:22:00,77.5,26.2,29.29,West,270,3.5,3.5,15,0.00,CLR,OVC,0.00,0.0,WeatherDisplay:10.37,2013-10-24 06:22:00,
2013-10-24 17:27:00,76.8,25.6,29.29,South,180,4.0,4.0,15,0.00,CLR,OVC,0.00,0.0,WeatherDisplay:10.37,2013-10-24 06:27:00,
2013-10-24 17:32:00,76.5,25.3,29.32,South,180,4.6,4.6,15,0.00,CLR,OVC,0.00,0.0,WeatherDisplay:10.37,2013-10-24 06:32:00,
2013-10-24 17:37:00,76.1,25.1,29.32,WNW,292,4.6,4.6,15,0.00,CLR,OVC,0.00,0.0,WeatherDisplay:10.37,2013-10-24 06:37:00,
2013-10-24 17:42:00,75.6,24.6,29.32,West,270,4.6,4.6,15,0.00,CLR,OVC,0.00,0.0,WeatherDisplay:10.37,2013-10-24 06:42:00,
2013-10-24 17:47:00,75.4,24.5,29.35,North,0,3.5,3.5,15,0.00,CLR,OVC,0.00,0.0,WeatherDisplay:10.37,2013-10-24 06:47:00,
2013-10-24 17:52:00,75.4,24.5,29.35,West,270,0.0,0.0,15,0.00,CLR,OVC,0.00,0.0,WeatherDisplay:10.37,2013-10-24 06:52:00,
2013-10-24 17:57:00,75.0,25.7,29.35,SSW,202,2.3,2.3,16,0.00,CLR,OVC,0.00,0.0,WeatherDisplay:10.37,2013-10-24 06:57:00,
2013-10-24 18:02:00,74.7,25.5,29.35,WNW,292,6.2,6.2,16,0.00,CLR,OVC,0.00,0.0,WeatherDisplay:10.37,2013-10-24 07:02:00,
2013-10-24 18:07:00,74.3,25.2,29.35,NNE,22,2.6,2.6,16,0.00,CLR,OVC,0.00,0.0,WeatherDisplay:10.37,2013-10-24 07:07:00,
2013-10-24 18:12:00,73.9,24.9,29.35,SE,135,2.3,2.4,16,0.00,CLR,OVC,0.00,0.0,WeatherDisplay:10.37,2013-10-24 07:12:00,
2013-10-24 18:17:00,73.6,24.6,29.38,NE,45,1.6,2.0,16,0.00,CLR,OVC,0.00,0.0,WeatherDisplay:10.37,2013-10-24 07:17:00,
2013-10-24 18:22:00,73.0,24.2,29.38,East,90,1.4,2.4,16,0.00,CLR,OVC,0.00,0.0,WeatherDisplay:10.37,2013-10-24 07:22:00,
2013-10-24 18:27:00,72.5,20.5,29.38,NE,45,2.3,2.3,14,0.00,CLR,OVC,0.00,0.0,WeatherDisplay:10.37,2013-10-24 07:27:00,
2013-10-24 18:32:00,72.3,23.6,29.38,ESE,112,2.6,2.6,16,0.00,CLR,OVC,0.00,0.0,WeatherDisplay:10.37,2013-10-24 07:32:00,
2013-10-24 18:37:00,72.1,23.4,29.38,NE,45,0.0,2.0,16,0.00,CLR,OVC,0.00,0.0,WeatherDisplay:10.37,2013-10-24 07:37:00,
2013-10-24 18:42:00,71.8,20.0,29.38,SW,225,1.4,2.4,14,0.00,CLR,OVC,0.00,0.0,WeatherDisplay:10.37,2013-10-24 07:42:00,
2013-10-24 18:47:00,71.6,23.0,29.41,SW,225,2.2,2.2,16,0.00,CLR,OVC,0.00,0.0,WeatherDisplay:10.37,2013-10-24 07:47:00,
2013-10-24 18:52:00,71.2,24.1,29.41,West,270,1.6,1.6,17,0.00,CLR,OVC,0.00,0.0,WeatherDisplay:10.37,2013-10-24 07:52:00,
2013-10-24 18:57:00,70.9,23.9,29.41,South,180,2.3,2.4,17,0.00,CLR,OVC,0.00,0.0,WeatherDisplay:10.37,2013-10-24 07:57:00,
2013-10-24 19:02:00,70.5,23.6,29.41,NNE,22,2.3,2.3,17,0.00,CLR,OVC,0.00,0.0,WeatherDisplay:10.37,2013-10-24 08:02:00,
2013-10-24 19:07:00,70.3,23.4,29.41,WSW,248,2.3,2.3,17,0.00,CLR,OVC,0.00,0.0,WeatherDisplay:10.37,2013-10-24 08:07:00,
2013-10-24 19:12:00,70.0,23.1,29.41,SSE,158,0.0,0.0,17,0.00,CLR,OVC,0.00,0.0,WeatherDisplay:10.37,2013-10-24 08:12:00,
2013-10-24 19:17:00,69.6,22.8,29.44,SSE,158,2.3,2.3,17,0.00,CLR,OVC,0.00,0.0,WeatherDisplay:10.37,2013-10-24 08:17:00,
2013-10-24 19:22:00,69.6,22.8,29.44,WNW,292,1.2,0.0,17,0.00,CLR,OVC,0.00,0.0,WeatherDisplay:10.37,2013-10-24 08:22:00,
2013-10-24 19:27:00,69.3,22.5,29.44,SSE,158,0.9,0.9,17,0.00,CLR,OVC,0.00,0.0,WeatherDisplay:10.37,2013-10-24 08:27:00,
2013-10-24 19:32:00,68.9,22.2,29.44,SSW,202,1.2,1.2,17,0.00,CLR,OVC,0.00,0.0,WeatherDisplay:10.37,2013-10-24 08:32:00,
2013-10-24 19:37:00,68.7,22.1,29.44,SW,225,1.2,0.0,17,0.00,CLR,OVC,0.00,0.0,WeatherDisplay:10.37,2013-10-24 08:37:00,
2013-10-24 19:42:00,68.4,21.8,29.47,SSW,202,0.0,0.0,17,0.00,CLR,OVC,0.00,0.0,WeatherDisplay:10.37,2013-10-24 08:42:00,
2013-10-24 19:47:00,68.4,21.8,29.47,SE,135,0.0,0.9,17,0.00,CLR,OVC,0.00,0.0,WeatherDisplay:10.37,2013-10-24 08:47:00,
2013-10-24 19:52:00,68.0,21.5,29.47,ESE,112,0.0,0.0,17,0.00,CLR,OVC,0.00,0.0,WeatherDisplay:10.37,2013-10-24 08:52:00,
2013-10-24 19:57:00,67.6,21.2,29.47,SSW,202,2.3,2.3,17,0.00,CLR,OVC,0.00,0.0,WeatherDisplay:10.37,2013-10-24 08:57:00,
2013-10-24 20:02:00,67.5,21.1,29.50,South,180,0.0,0.0,17,0.00,CLR,OVC,0.00,0.0,WeatherDisplay:10.37,2013-10-24 09:02:00,
2013-10-24 20:07:00,67.3,20.9,29.50,SSW,202,1.2,0.0,17,0.00,CLR,OVC,0.00,0.0,WeatherDisplay:10.37,2013-10-24 09:07:00,
2013-10-24 20:12:00,67.1,20.8,29.50,SSW,202,0.0,0.0,17,0.00,CLR,OVC,0.00,0.0,WeatherDisplay:10.37,2013-10-24 09:12:00,
2013-10-24 20:17:00,66.9,20.6,29.50,West,270,0.0,0.0,17,0.00,CLR,OVC,0.00,0.0,WeatherDisplay:10.37,2013-10-24 09:17:00,
2013-10-24 20:22:00,66.7,20.5,29.50,SW,225,0.0,0.0,17,0.00,CLR,OVC,0.00,0.0,WeatherDisplay:10.37,2013-10-24 09:22:00,
2013-10-24 20:27:00,66.4,20.2,29.50,WSW,248,0.0,0.0,17,0.00,CLR,OVC,0.00,0.0,WeatherDisplay:10.37,2013-10-24 09:27:00,
2013-10-24 20:32:00,66.2,20.0,29.53,SSW,202,0.0,0.0,17,0.00,CLR,OVC,0.00,0.0,WeatherDisplay:10.37,2013-10-24 09:32:00,
2013-10-24 20:37:00,66.0,21.2,29.53,SSE,158,1.4,0.0,18,0.00,CLR,OVC,0.00,0.0,WeatherDisplay:10.37,2013-10-24 09:37:00,
2013-10-24 20:42:00,65.8,21.1,29.53,WSW,248,0.0,0.0,18,0.00,CLR,OVC,0.00,0.0,WeatherDisplay:10.37,2013-10-24 09:42:00,
2013-10-24 20:47:00,65.7,21.0,29.50,WSW,248,1.2,1.2,18,0.00,CLR,OVC,0.00,0.0,WeatherDisplay:10.37,2013-10-24 09:47:00,
2013-10-24 20:52:00,65.5,20.8,29.50,WSW,248,1.2,1.2,18,0.00,CLR,OVC,0.00,0.0,WeatherDisplay:10.37,2013-10-24 09:52:00,
2013-10-24 20:57:00,65.3,20.7,29.50,SSW,202,1.6,1.6,18,0.00,CLR,OVC,0.00,0.0,WeatherDisplay:10.37,2013-10-24 09:57:00,
2013-10-24 21:03:00,65.1,20.5,29.50,SE,135,1.2,0.0,18,0.00,CLR,OVC,0.00,0.0,WeatherDisplay:10.37,2013-10-24 10:03:00,
2013-10-24 21:08:00,64.9,20.4,29.50,WNW,292,0.0,0.0,18,0.00,CLR,OVC,0.00,0.0,WeatherDisplay:10.37,2013-10-24 10:08:00,
2013-10-24 21:13:00,64.8,22.7,29.50,WSW,248,3.5,3.5,20,0.00,CLR,OVC,0.00,0.0,WeatherDisplay:10.37,2013-10-24 10:13:00,
2013-10-24 21:18:00,64.4,22.4,29.53,WSW,248,2.3,0.0,20,0.00,CLR,OVC,0.00,0.0,WeatherDisplay:10.37,2013-10-24 10:18:00,
2013-10-24 21:23:00,64.2,23.4,29.53,WSW,248,2.3,2.3,21,0.00,CLR,OVC,0.00,0.0,WeatherDisplay:10.37,2013-10-24 10:23:00,
2013-10-24 21:28:00,64.0,23.3,29.56,SSW,202,2.3,2.3,21,0.00,CLR,OVC,0.00,0.0,WeatherDisplay:10.37,2013-10-24 10:28:00,
2013-10-24 21:33:00,63.9,23.1,29.56,WNW,292,2.4,2.4,21,0.00,CLR,OVC,0.00,0.0,WeatherDisplay:10.37,2013-10-24 10:33:00,
2013-10-24 21:38:00,63.7,23.0,29.56,SSW,202,1.6,1.6,21,0.00,CLR,OVC,0.00,0.0,WeatherDisplay:10.37,2013-10-24 10:38:00,
2013-10-24 21:43:00,63.5,22.8,29.56,SSW,202,2.3,2.3,21,0.00,CLR,OVC,0.00,0.0,WeatherDisplay:10.37,2013-10-24 10:43:00,
2013-10-24 21:48:00,63.3,22.7,29.56,West,270,1.4,0.0,21,0.00,CLR,OVC,0.00,0.0,WeatherDisplay:10.37,2013-10-24 10:48:00,
2013-10-24 21:53:00,63.1,22.5,29.56,SW,225,2.3,2.3,21,0.00,CLR,OVC,0.00,0.0,WeatherDisplay:10.37,2013-10-24 10:53:00,
2013-10-24 21:58:00,63.0,22.4,29.56,NNW,338,2.3,2.3,21,0.00,CLR,OVC,0.00,0.0,WeatherDisplay:10.37,2013-10-24 10:58:00,
2013-10-24 22:03:00,63.0,22.4,29.56,SSW,202,0.0,0.9,21,0.00,CLR,OVC,0.00,0.0,WeatherDisplay:10.37,2013-10-24 11:03:00,
2013-10-24 22:08:00,62.6,22.1,29.56,SSW,202,1.2,1.2,21,0.00,CLR,OVC,0.00,0.0,WeatherDisplay:10.37,2013-10-24 11:08:00,
2013-10-24 22:13:00,62.6,22.1,29.56,SSW,202,1.2,0.0,21,0.00,CLR,OVC,0.00,0.0,WeatherDisplay:10.37,2013-10-24 11:13:00,
2013-10-24 22:18:00,62.4,21.9,29.56,SW,225,1.2,0.0,21,0.00,CLR,OVC,0.00,0.0,WeatherDisplay:10.37,2013-10-24 11:18:00,
2013-10-24 22:23:00,62.4,25.1,29.56,WNW,292,1.2,0.0,24,0.00,CLR,OVC,0.00,0.0,WeatherDisplay:10.37,2013-10-24 11:23:00,
2013-10-24 22:28:00,62.2,25.0,29.53,SW,225,1.2,1.2,24,0.00,CLR,OVC,0.00,0.0,WeatherDisplay:10.37,2013-10-24 11:28:00,
2013-10-24 22:33:00,62.1,24.8,29.53,SW,225,0.0,0.0,24,0.00,CLR,OVC,0.00,0.0,WeatherDisplay:10.37,2013-10-24 11:33:00,
2013-10-24 22:38:00,61.9,24.7,29.53,SW,225,0.0,0.0,24,0.00,CLR,OVC,0.00,0.0,WeatherDisplay:10.37,2013-10-24 11:38:00,
2013-10-24 22:43:00,61.7,24.5,29.56,South,180,0.0,0.0,24,0.00,CLR,OVC,0.00,0.0,WeatherDisplay:10.37,2013-10-24 11:43:00,
2013-10-24 22:48:00,61.7,24.5,29.56,SW,225,0.0,0.0,24,0.00,CLR,OVC,0.00,0.0,WeatherDisplay:10.37,2013-10-24 11:48:00,
2013-10-24 22:53:00,61.3,24.2,29.56,WSW,248,0.0,0.0,24,0.00,CLR,OVC,0.00,0.0,WeatherDisplay:10.37,2013-10-24 11:53:00,
2013-10-24 22:58:00,61.2,24.0,29.59,WSW,248,0.0,0.0,24,0.00,CLR,OVC,0.00,0.0,WeatherDisplay:10.37,2013-10-24 11:58:00,
2013-10-24 23:03:00,61.0,23.9,29.59,West,270,0.0,0.0,24,0.00,CLR,OVC,0.00,0.0,WeatherDisplay:10.37,2013-10-24 12:03:00,
2013-10-24 23:08:00,60.6,23.6,29.59,West,270,0.0,0.0,24,0.00,CLR,OVC,0.00,0.0,WeatherDisplay:10.37,2013-10-24 12:08:00,
2013-10-24 23:13:00,60.4,23.4,29.59,WSW,248,0.0,0.0,24,0.00,CLR,OVC,0.00,0.0,WeatherDisplay:10.37,2013-10-24 12:13:00,
2013-10-24 23:18:00,60.3,23.3,29.59,NW,315,0.0,0.0,24,0.00,CLR,OVC,0.00,0.0,WeatherDisplay:10.37,2013-10-24 12:18:00,
2013-10-24 23:23:00,60.1,23.1,29.59,WSW,248,0.0,0.0,24,0.00,CLR,OVC,0.00,0.0,WeatherDisplay:10.37,2013-10-24 12:23:00,
2013-10-24 23:28:00,59.7,22.8,29.59,West,270,0.0,0.0,24,0.00,CLR,OVC,0.00,0.0,WeatherDisplay:10.37,2013-10-24 12:28:00,
2013-10-24 23:33:00,59.4,22.5,29.59,West,270,0.0,0.0,24,0.00,CLR,OVC,0.00,0.0,WeatherDisplay:10.37,2013-10-24 12:33:00,
2013-10-24 23:38:00,59.2,23.3,29.59,WSW,248,0.0,0.0,25,0.00,CLR,OVC,0.00,0.0,WeatherDisplay:10.37,2013-10-24 12:38:00,
2013-10-24 23:43:00,59.0,23.2,29.59,SSW,202,0.0,0.0,25,0.00,CLR,OVC,0.00,0.0,WeatherDisplay:10.37,2013-10-24 12:43:00,
2013-10-24 23:48:00,59.0,23.2,29.59,SW,225,0.0,0.0,25,0.00,CLR,OVC,0.00,0.0,WeatherDisplay:10.37,2013-10-24 12:48:00,
2013-10-24 23:53:00,58.8,23.0,29.59,NE,45,0.0,0.0,25,0.00,CLR,OVC,0.00,0.0,WeatherDisplay:10.37,2013-10-24 12:53:00,
2013-10-24 23:58:00,58.5,22.7,29.62,SSE,158,0.0,0.0,25,0.00,CLR,OVC,0.00,0.0,WeatherDisplay:10.37,2013-10-24 12:58:00,